createdAt,value
2023-02-15T00:00:09.313Z,7.23
2023-02-15T00:02:48.845Z,7.16
2023-02-15T00:05:16.692Z,7.23
2023-02-15T00:07:44.539Z,7.23
2023-02-15T00:10:15.045Z,7.20
2023-02-15T00:12:42.791Z,7.20
2023-02-15T00:15:12.288Z,7.15
2023-02-15T00:17:40.035Z,7.19
2023-02-15T00:20:08.888Z,7.20
2023-02-15T00:22:36.659Z,7.18
2023-02-15T00:25:04.801Z,7.06
2023-02-15T00:27:35.431Z,7.15
2023-02-15T00:30:04.860Z,7.12
2023-02-15T00:32:32.871Z,7.10
2023-02-15T00:35:00.554Z,7.05
2023-02-15T00:37:28.364Z,6.95
2023-02-15T00:39:56.093Z,7.04
2023-02-15T00:42:23.841Z,7.05
2023-02-15T00:44:54.911Z,7.06
2023-02-15T00:47:25.218Z,7.03
2023-02-15T00:49:58.115Z,7.04
2023-02-15T00:52:26.163Z,7.03
2023-02-15T00:55:08.416Z,6.97
2023-02-15T00:57:36.352Z,7.03
2023-02-15T01:00:06.577Z,6.98
2023-02-15T01:02:37.077Z,6.94
2023-02-15T01:05:05.071Z,6.85
2023-02-15T01:07:32.951Z,6.89
2023-02-15T01:10:00.860Z,6.82
2023-02-15T01:12:28.693Z,6.85
2023-02-15T01:14:58.603Z,6.88
2023-02-15T01:17:28.387Z,6.83
2023-02-15T01:19:56.841Z,6.87
2023-02-15T01:22:24.626Z,6.84
2023-02-15T01:24:52.498Z,6.75
2023-02-15T01:27:22.897Z,6.80
2023-02-15T01:29:51.173Z,6.80
2023-02-15T01:32:19.002Z,6.79
2023-02-15T01:34:48.201Z,6.77
2023-02-15T01:37:19.629Z,6.74
2023-02-15T01:39:47.459Z,6.76
2023-02-15T01:42:15.666Z,6.78
2023-02-15T01:44:53.626Z,6.80
2023-02-15T01:47:29.052Z,6.76
2023-02-15T01:50:05.304Z,6.82
2023-02-15T01:52:34.801Z,6.79
2023-02-15T01:55:07.118Z,6.71
2023-02-15T01:57:35.832Z,6.75
2023-02-15T02:00:10.317Z,6.78
2023-02-15T02:02:41.682Z,6.70
2023-02-15T02:05:13.928Z,6.76
2023-02-15T02:07:44.505Z,6.76
2023-02-15T02:10:15.172Z,6.66
2023-02-15T02:12:46.904Z,6.74
2023-02-15T02:15:15.405Z,6.71
2023-02-15T02:17:57.102Z,6.70
2023-02-15T02:20:49.640Z,6.64
2023-02-15T02:23:27.789Z,6.74
2023-02-15T02:26:30.642Z,6.67
2023-02-15T02:29:41.603Z,6.72
2023-02-15T02:32:53.870Z,6.62
2023-02-15T02:35:28.860Z,6.66
2023-02-15T02:38:05.426Z,6.65
2023-02-15T02:40:57.827Z,6.54
2023-02-15T02:43:35.574Z,6.58
2023-02-15T02:46:10.069Z,6.57
2023-02-15T02:48:40.499Z,6.52
2023-02-15T02:51:09.641Z,6.52
2023-02-15T02:53:40.047Z,6.49
2023-02-15T02:56:17.849Z,6.52
2023-02-15T02:58:53.464Z,6.46
2023-02-15T03:01:36.680Z,6.47
2023-02-15T03:04:11.197Z,6.46
2023-02-15T03:06:48.144Z,6.42
2023-02-15T03:09:23.313Z,6.44
2023-02-15T03:11:51.546Z,6.45
2023-02-15T03:14:21.641Z,6.39
2023-02-15T03:16:51.363Z,6.34
2023-02-15T03:19:24.486Z,6.39
2023-02-15T03:22:04.568Z,6.40
2023-02-15T03:24:37.561Z,6.36
2023-02-15T03:27:11.600Z,6.37
2023-02-15T03:29:40.913Z,6.35
2023-02-15T03:32:12.909Z,6.32
2023-02-15T03:34:40.820Z,6.33
2023-02-15T03:37:15.736Z,6.32
2023-02-15T03:39:50.842Z,6.30
2023-02-15T03:42:27.045Z,6.32
2023-02-15T03:45:00.314Z,6.29
2023-02-15T03:47:32.103Z,6.23
2023-02-15T03:50:04.131Z,6.26
2023-02-15T03:52:34.320Z,6.22
2023-02-15T03:55:02.196Z,6.23
2023-02-15T03:57:57.353Z,6.22
2023-02-15T04:00:44.373Z,6.19
2023-02-15T04:03:26.376Z,6.04
2023-02-15T04:05:54.269Z,6.16
2023-02-15T04:08:44.125Z,6.10
2023-02-15T04:11:10.950Z,6.19
2023-02-15T04:13:38.771Z,6.19
2023-02-15T04:16:07.097Z,6.20
2023-02-15T04:18:56.785Z,6.20
2023-02-15T04:21:44.992Z,6.20
2023-02-15T04:24:32.945Z,6.15
2023-02-15T04:27:02.158Z,6.17
2023-02-15T04:29:30.400Z,6.17
2023-02-15T04:31:59.439Z,6.11
2023-02-15T04:34:27.647Z,6.09
2023-02-15T04:36:55.395Z,6.07
2023-02-15T04:39:24.446Z,6.07
2023-02-15T04:41:55.345Z,5.98
2023-02-15T04:44:23.068Z,6.08
2023-02-15T04:46:50.895Z,6.06
2023-02-15T04:49:18.864Z,6.02
2023-02-15T04:51:46.600Z,5.98
2023-02-15T04:54:14.353Z,5.99
2023-02-15T04:56:44.088Z,5.98
2023-02-15T04:59:11.886Z,6.01
2023-02-15T05:01:39.693Z,5.89
2023-02-15T05:04:07.520Z,5.95
2023-02-15T05:06:37.268Z,5.92
2023-02-15T05:09:05.225Z,5.95
2023-02-15T05:11:32.952Z,5.91
2023-02-15T05:14:02.093Z,5.94
2023-02-15T05:16:29.838Z,5.86
2023-02-15T05:18:57.661Z,5.91
2023-02-15T05:21:26.062Z,5.72
2023-02-15T05:23:54.015Z,5.87
2023-02-15T05:26:43.104Z,5.85
2023-02-15T05:29:12.761Z,5.79
2023-02-15T05:31:40.834Z,5.85
2023-02-15T05:34:08.749Z,5.78
2023-02-15T05:36:36.511Z,5.80
2023-02-15T05:39:05.020Z,5.81
2023-02-15T05:41:32.785Z,5.77
2023-02-15T05:44:00.553Z,5.75
2023-02-15T05:46:29.734Z,5.74
2023-02-15T05:48:57.709Z,5.76
2023-02-15T05:51:25.422Z,5.79
2023-02-15T05:53:53.117Z,5.76
2023-02-15T05:56:46.026Z,5.73
2023-02-15T05:59:14.187Z,5.72
2023-02-15T06:01:43.352Z,5.69
2023-02-15T06:04:11.041Z,5.67
2023-02-15T06:06:38.760Z,5.66
2023-02-15T06:09:06.551Z,5.44
2023-02-15T06:11:34.247Z,5.68
2023-02-15T06:14:01.970Z,5.61
2023-02-15T06:16:29.812Z,5.56
2023-02-15T06:19:00.102Z,5.60
2023-02-15T06:21:27.899Z,5.62
2023-02-15T06:23:55.704Z,5.54
2023-02-15T06:26:29.369Z,5.29
2023-02-15T06:28:57.161Z,5.54
2023-02-15T06:31:25.154Z,5.51
2023-02-15T06:33:52.979Z,5.56
2023-02-15T06:36:22.988Z,5.54
2023-02-15T06:38:50.995Z,5.41
2023-02-15T06:41:18.680Z,5.41
2023-02-15T06:43:46.367Z,5.48
2023-02-15T06:46:14.254Z,5.53
2023-02-15T06:48:42.140Z,5.49
2023-02-15T06:51:12.993Z,5.46
2023-02-15T06:53:43.804Z,5.49
2023-02-15T06:56:12.492Z,5.44
2023-02-15T06:58:41.281Z,5.53
2023-02-15T07:01:10.197Z,5.50
2023-02-15T07:03:38.138Z,5.48
2023-02-15T07:06:09.194Z,5.37
2023-02-15T07:08:47.146Z,5.32
2023-02-15T07:11:32.514Z,5.47
2023-02-15T07:14:02.619Z,5.38
2023-02-15T07:16:30.849Z,5.48
2023-02-15T07:18:58.728Z,5.41
2023-02-15T07:21:26.496Z,5.41
2023-02-15T07:23:58.478Z,5.31
2023-02-15T07:26:26.327Z,5.48
2023-02-15T07:28:54.061Z,5.41
2023-02-15T07:31:21.840Z,5.43
2023-02-15T07:33:49.625Z,5.43
2023-02-15T07:36:17.504Z,5.38
2023-02-15T07:38:45.814Z,5.39
2023-02-15T07:41:16.576Z,5.40
2023-02-15T07:43:46.363Z,5.41
2023-02-15T07:46:18.681Z,5.34
2023-02-15T07:48:46.974Z,5.38
2023-02-15T07:51:16.768Z,5.31
2023-02-15T07:53:44.981Z,5.26
2023-02-15T07:56:15.711Z,5.39
2023-02-15T07:58:56.774Z,5.41
2023-02-15T08:01:33.160Z,5.46
2023-02-15T08:04:01.485Z,5.45
2023-02-15T08:06:32.390Z,5.45
2023-02-15T08:09:01.785Z,5.44
2023-02-15T08:11:35.105Z,5.36
2023-02-15T08:14:04.942Z,5.55
2023-02-15T08:16:36.037Z,5.63
2023-02-15T08:19:06.126Z,5.66
2023-02-15T08:21:40.759Z,5.61
2023-02-15T08:24:10.440Z,5.68
2023-02-15T08:26:42.200Z,5.64
2023-02-15T08:29:10.492Z,5.70
2023-02-15T08:31:39.436Z,5.76
2023-02-15T08:34:07.536Z,5.70
2023-02-15T08:36:35.731Z,5.82
2023-02-15T08:39:06.311Z,5.86
2023-02-15T08:41:36.562Z,5.85
2023-02-15T08:44:07.893Z,5.89
2023-02-15T08:46:37.907Z,5.94
2023-02-15T08:49:06.300Z,5.97
2023-02-15T08:51:36.167Z,5.84
2023-02-15T08:54:06.571Z,6.02
2023-02-15T08:56:39.457Z,5.96
2023-02-15T08:59:13.472Z,6.09
2023-02-15T09:01:41.274Z,6.07
2023-02-15T09:04:10.727Z,6.19
2023-02-15T09:06:39.350Z,6.23
2023-02-15T09:09:11.993Z,6.24
2023-02-15T09:11:41.967Z,6.27
2023-02-15T09:14:14.464Z,6.37
2023-02-15T09:16:45.756Z,6.42
2023-02-15T09:19:14.179Z,6.45
2023-02-15T09:21:42.487Z,6.49
2023-02-15T09:24:11.961Z,6.55
2023-02-15T09:26:42.355Z,6.60
2023-02-15T09:29:12.778Z,6.66
2023-02-15T09:31:45.031Z,6.72
2023-02-15T09:34:13.724Z,6.78
2023-02-15T09:36:42.596Z,6.84
2023-02-15T09:39:12.500Z,6.88
2023-02-15T09:42:06.325Z,6.98
2023-02-15T09:44:56.417Z,7.08
2023-02-15T09:47:43.916Z,7.20
2023-02-15T09:50:20.148Z,7.24
2023-02-15T09:53:02.677Z,7.39
2023-02-15T09:55:44.445Z,7.54
2023-02-15T09:58:22.683Z,7.66
2023-02-15T10:00:59.142Z,7.75
2023-02-15T10:03:44.469Z,7.89
2023-02-15T10:06:32.067Z,8.08
2023-02-15T10:09:11.848Z,8.24
2023-02-15T10:11:52.134Z,8.37
2023-02-15T10:14:42.533Z,8.46
2023-02-15T10:17:24.036Z,8.55
2023-02-15T10:20:06.544Z,8.68
2023-02-15T10:22:44.564Z,8.84
2023-02-15T10:25:31.873Z,8.98
2023-02-15T10:28:06.577Z,9.06
2023-02-15T10:30:45.649Z,8.98
2023-02-15T10:33:25.975Z,9.28
2023-02-15T10:36:03.802Z,9.38
2023-02-15T10:38:39.111Z,9.58
2023-02-15T10:41:21.080Z,9.80
2023-02-15T10:44:07.947Z,9.95
2023-02-15T10:46:54.041Z,10.09
2023-02-15T10:49:37.351Z,10.17
2023-02-15T10:52:19.594Z,10.28
2023-02-15T10:55:00.110Z,10.46
2023-02-15T10:57:36.181Z,10.63
2023-02-15T11:00:12.250Z,10.75
2023-02-15T11:02:53.457Z,10.91
2023-02-15T11:05:51.500Z,11.07
2023-02-15T11:08:20.773Z,11.39
2023-02-15T11:10:53.418Z,11.54
2023-02-15T11:13:23.183Z,11.66
2023-02-15T11:15:56.204Z,12.02
2023-02-15T11:18:31.141Z,12.13
2023-02-15T11:21:04.236Z,12.08
2023-02-15T11:23:36.024Z,12.23
2023-02-15T11:26:06.932Z,12.48
2023-02-15T11:28:39.087Z,12.77
2023-02-15T11:31:15.839Z,12.89
2023-02-15T11:33:48.771Z,12.88
2023-02-15T11:36:22.298Z,12.72
2023-02-15T11:38:54.961Z,12.62
2023-02-15T11:41:26.988Z,12.56
2023-02-15T11:44:00.250Z,12.49
2023-02-15T11:46:28.021Z,12.64
2023-02-15T11:48:55.824Z,12.68
2023-02-15T11:51:25.232Z,12.63
2023-02-15T11:53:53.753Z,12.60
2023-02-15T11:56:24.701Z,12.54
2023-02-15T11:58:58.056Z,12.45
2023-02-15T12:01:32.795Z,12.63
2023-02-15T12:04:04.979Z,12.87
2023-02-15T12:06:36.516Z,13.36
2023-02-15T12:09:09.382Z,13.54
2023-02-15T12:11:38.919Z,13.54
2023-02-15T12:14:08.404Z,13.75
2023-02-15T12:16:44.169Z,13.84
2023-02-15T12:19:29.358Z,13.77
2023-02-15T12:22:00.347Z,14.02
2023-02-15T12:24:31.837Z,13.84
2023-02-15T12:27:03.522Z,13.65
2023-02-15T12:29:34.705Z,13.63
2023-02-15T12:32:02.839Z,13.64
2023-02-15T12:34:34.143Z,13.94
2023-02-15T12:37:12.649Z,13.89
2023-02-15T12:39:54.173Z,14.01
2023-02-15T12:42:22.822Z,14.00
2023-02-15T12:45:02.740Z,13.93
2023-02-15T12:47:32.157Z,13.85
2023-02-15T12:50:12.617Z,14.00
2023-02-15T12:52:42.474Z,13.89
2023-02-15T12:55:19.927Z,13.92
2023-02-15T12:57:48.116Z,13.88
2023-02-15T13:00:32.914Z,13.79
2023-02-15T13:03:02.797Z,13.73
2023-02-15T13:05:35.922Z,13.86
2023-02-15T13:08:12.725Z,13.77
2023-02-15T13:10:44.973Z,13.70
2023-02-15T13:13:18.872Z,13.65
2023-02-15T13:15:50.544Z,13.56
2023-02-15T13:18:21.861Z,13.52
2023-02-15T13:20:50.976Z,13.57
2023-02-15T13:23:29.397Z,13.69
2023-02-15T13:25:59.965Z,13.74
2023-02-15T13:28:37.165Z,13.78
2023-02-15T13:31:05.576Z,13.79
2023-02-15T13:33:37.114Z,13.75
2023-02-15T13:36:12.565Z,13.67
2023-02-15T13:38:51.419Z,13.71
2023-02-15T13:41:27.472Z,13.70
2023-02-15T13:44:06.209Z,13.68
2023-02-15T13:46:47.679Z,13.72
2023-02-15T13:49:23.891Z,13.79
2023-02-15T13:51:59.315Z,13.80
2023-02-15T13:54:38.565Z,13.91
2023-02-15T13:57:28.769Z,13.84
2023-02-15T14:00:06.720Z,13.87
2023-02-15T14:03:10.150Z,13.76
2023-02-15T14:05:51.524Z,13.83
2023-02-15T14:08:34.731Z,13.81
2023-02-15T14:11:10.448Z,13.99
2023-02-15T14:13:55.237Z,14.04
2023-02-15T14:16:34.579Z,14.16
2023-02-15T14:19:13.288Z,14.14
2023-02-15T14:21:48.079Z,14.19
2023-02-15T14:24:27.441Z,14.16
2023-02-15T14:27:06.258Z,14.18
2023-02-15T14:29:53.732Z,14.12
2023-02-15T14:32:29.962Z,14.02
2023-02-15T14:34:59.901Z,13.97
2023-02-15T14:37:42.432Z,13.84
2023-02-15T14:40:37.072Z,13.84
2023-02-15T14:43:14.181Z,13.79
2023-02-15T14:45:58.120Z,13.69
2023-02-15T14:48:32.367Z,13.66
2023-02-15T14:51:00.475Z,13.58
2023-02-15T14:53:39.457Z,13.55
2023-02-15T14:56:18.408Z,13.50
2023-02-15T14:59:01.474Z,13.42
2023-02-15T15:01:31.743Z,13.28
2023-02-15T15:04:03.149Z,13.34
2023-02-15T15:06:33.660Z,13.29
2023-02-15T15:09:12.520Z,13.25
2023-02-15T15:11:46.610Z,13.16
2023-02-15T15:14:41.781Z,13.11
2023-02-15T15:17:17.061Z,12.88
2023-02-15T15:20:05.392Z,12.92
2023-02-15T15:22:35.253Z,12.92
2023-02-15T15:25:04.077Z,12.89
2023-02-15T15:27:58.719Z,12.80
2023-02-15T15:30:56.194Z,12.76
2023-02-15T15:33:55.618Z,12.71
2023-02-15T15:36:55.290Z,12.62
2023-02-15T15:39:44.851Z,12.57
2023-02-15T15:42:20.835Z,12.39
2023-02-15T15:45:33.942Z,12.44
2023-02-15T15:48:17.423Z,12.38
2023-02-15T15:50:51.962Z,12.34
2023-02-15T15:53:24.353Z,12.31
2023-02-15T15:55:57.641Z,12.24
2023-02-15T15:58:26.384Z,12.17
2023-02-15T16:00:57.964Z,12.10
2023-02-15T16:03:28.942Z,12.01
2023-02-15T16:06:01.577Z,11.94
2023-02-15T16:08:39.286Z,11.76
2023-02-15T16:11:13.338Z,11.62
2023-02-15T16:13:43.128Z,11.53
2023-02-15T16:16:14.590Z,11.40
2023-02-15T16:18:43.333Z,11.38
2023-02-15T16:21:20.338Z,11.39
2023-02-15T16:24:08.345Z,11.41
2023-02-15T16:26:57.833Z,11.40
2023-02-15T16:29:30.005Z,11.35
2023-02-15T16:32:02.767Z,11.32
2023-02-15T16:34:33.459Z,11.15
2023-02-15T16:37:24.334Z,11.21
2023-02-15T16:39:52.261Z,11.12
2023-02-15T16:42:23.836Z,11.12
2023-02-15T16:44:56.861Z,11.12
2023-02-15T16:47:28.322Z,11.06
2023-02-15T16:50:02.590Z,10.98
2023-02-15T16:52:32.315Z,10.97
2023-02-15T16:55:05.252Z,10.97
2023-02-15T16:57:35.931Z,10.94
2023-02-15T17:00:21.505Z,10.82
2023-02-15T17:03:19.004Z,10.72
2023-02-15T17:05:51.891Z,10.65
2023-02-15T17:08:27.255Z,10.60
2023-02-15T17:11:21.022Z,10.54
2023-02-15T17:14:21.667Z,10.66
2023-02-15T17:16:52.097Z,10.56
2023-02-15T17:19:24.848Z,10.66
2023-02-15T17:21:58.201Z,10.59
2023-02-15T17:24:39.603Z,10.43
2023-02-15T17:27:17.065Z,10.41
2023-02-15T17:30:07.166Z,10.15
2023-02-15T17:32:41.612Z,10.06
2023-02-15T17:35:21.281Z,10.25
2023-02-15T17:37:51.209Z,10.23
2023-02-15T17:40:24.723Z,10.19
2023-02-15T17:42:53.585Z,10.15
2023-02-15T17:45:35.602Z,10.23
2023-02-15T17:48:08.962Z,9.67
2023-02-15T17:50:49.325Z,10.30
2023-02-15T17:53:30.699Z,10.23
2023-02-15T17:56:06.799Z,10.32
2023-02-15T17:58:38.491Z,10.17
2023-02-15T18:01:34.135Z,9.74
2023-02-15T18:04:30.322Z,10.17
2023-02-15T18:07:17.776Z,10.26
2023-02-15T18:10:13.088Z,9.11
2023-02-15T18:12:47.730Z,9.85
2023-02-15T18:15:19.140Z,10.20
2023-02-15T18:17:49.084Z,9.55
2023-02-15T18:20:20.123Z,10.18
2023-02-15T18:22:48.508Z,10.07
2023-02-15T18:25:18.963Z,9.88
2023-02-15T18:27:48.103Z,10.04
2023-02-15T18:30:19.152Z,10.02
2023-02-15T18:32:51.226Z,9.96
2023-02-15T18:35:21.608Z,10.09
2023-02-15T18:37:50.263Z,10.08
2023-02-15T18:40:19.818Z,10.02
2023-02-15T18:42:49.760Z,10.03
2023-02-15T18:45:19.192Z,9.95
2023-02-15T18:47:47.476Z,9.83
2023-02-15T18:50:16.274Z,9.92
2023-02-15T18:52:47.616Z,9.84
2023-02-15T18:55:19.335Z,9.79
2023-02-15T18:57:49.671Z,9.81
2023-02-15T19:00:20.742Z,9.81
2023-02-15T19:02:50.908Z,9.78
2023-02-15T19:05:18.924Z,9.74
2023-02-15T19:07:48.483Z,9.73
2023-02-15T19:10:18.589Z,9.64
2023-02-15T19:12:46.796Z,9.65
2023-02-15T19:15:23.214Z,9.69
2023-02-15T19:17:51.011Z,9.54
2023-02-15T19:20:20.778Z,9.71
2023-02-15T19:22:50.179Z,9.65
2023-02-15T19:25:21.076Z,9.62
2023-02-15T19:27:48.928Z,9.51
2023-02-15T19:30:21.391Z,9.58
2023-02-15T19:32:49.519Z,9.53
2023-02-15T19:35:19.798Z,9.38
2023-02-15T19:37:50.857Z,9.42
2023-02-15T19:40:21.560Z,9.40
2023-02-15T19:42:50.085Z,9.30
2023-02-15T19:45:26.078Z,9.33
2023-02-15T19:47:55.165Z,9.31
2023-02-15T19:50:28.530Z,9.30
2023-02-15T19:52:59.135Z,9.31
2023-02-15T19:55:31.662Z,9.28
2023-02-15T19:58:01.157Z,9.15
2023-02-15T20:00:32.361Z,9.31
2023-02-15T20:03:01.192Z,9.33
2023-02-15T20:05:30.352Z,9.30
2023-02-15T20:07:58.961Z,9.25
2023-02-15T20:10:28.948Z,9.28
2023-02-15T20:13:00.170Z,9.23
2023-02-15T20:15:36.605Z,9.25
2023-02-15T20:18:06.889Z,9.17
2023-02-15T20:20:42.687Z,9.07
2023-02-15T20:23:19.369Z,8.87
2023-02-15T20:25:47.618Z,9.15
2023-02-15T20:28:20.092Z,9.03
2023-02-15T20:30:50.240Z,9.09
2023-02-15T20:33:19.509Z,9.04
2023-02-15T20:35:48.364Z,9.06
2023-02-15T20:38:20.474Z,9.06
2023-02-15T20:41:08.239Z,9.05
2023-02-15T20:43:39.545Z,9.02
2023-02-15T20:46:08.915Z,8.95
2023-02-15T20:48:37.556Z,8.97
2023-02-15T20:51:06.411Z,8.89
2023-02-15T20:53:36.871Z,8.72
2023-02-15T20:56:07.669Z,8.81
2023-02-15T20:58:36.095Z,8.83
2023-02-15T21:01:14.494Z,8.79
2023-02-15T21:03:45.267Z,8.78
2023-02-15T21:06:14.883Z,8.76
2023-02-15T21:08:43.024Z,8.78
2023-02-15T21:11:21.483Z,8.73
2023-02-15T21:13:52.879Z,8.70
2023-02-15T21:16:22.449Z,8.36
2023-02-15T21:18:52.729Z,8.42
2023-02-15T21:21:24.597Z,8.55
2023-02-15T21:23:54.201Z,8.46
2023-02-15T21:26:23.718Z,8.34
2023-02-15T21:28:52.001Z,8.36
2023-02-15T21:31:23.386Z,8.32
2023-02-15T21:33:51.829Z,7.98
2023-02-15T21:36:21.979Z,7.76
2023-02-15T21:38:53.812Z,7.99
2023-02-15T21:41:46.038Z,7.92
2023-02-15T21:44:39.655Z,8.10
2023-02-15T21:47:41.312Z,7.97
2023-02-15T21:50:29.804Z,7.62
2023-02-15T21:52:58.193Z,7.28
2023-02-15T21:55:26.630Z,7.97
2023-02-15T21:57:54.737Z,7.39
2023-02-15T22:00:26.662Z,7.92
2023-02-15T22:02:58.517Z,8.01
2023-02-15T22:05:29.424Z,7.79
2023-02-15T22:07:57.942Z,7.96
2023-02-15T22:10:29.728Z,7.92
2023-02-15T22:12:58.862Z,7.94
2023-02-15T22:15:30.248Z,7.87
2023-02-15T22:18:08.686Z,7.84
2023-02-15T22:20:36.883Z,7.87
2023-02-15T22:23:04.803Z,7.18
2023-02-15T22:25:32.893Z,7.86
2023-02-15T22:28:00.875Z,7.81
2023-02-15T22:30:32.302Z,7.76
2023-02-15T22:33:03.660Z,7.78
2023-02-15T22:35:35.250Z,7.72
2023-02-15T22:38:03.281Z,7.81
2023-02-15T22:40:33.381Z,7.76
2023-02-15T22:43:11.611Z,7.80
2023-02-15T22:45:42.285Z,7.74
2023-02-15T22:48:13.285Z,7.46
2023-02-15T22:50:42.007Z,7.61
2023-02-15T22:53:10.908Z,7.36
2023-02-15T22:55:41.820Z,7.70
2023-02-15T22:58:17.333Z,7.81
2023-02-15T23:00:48.301Z,7.84
2023-02-15T23:03:25.450Z,7.92
2023-02-15T23:05:53.744Z,7.84
2023-02-15T23:08:27.336Z,7.80
2023-02-15T23:10:56.849Z,7.71
2023-02-15T23:13:26.989Z,7.70
2023-02-15T23:15:58.267Z,7.70
2023-02-15T23:18:31.664Z,7.61
2023-02-15T23:21:01.815Z,7.67
2023-02-15T23:23:34.946Z,7.56
2023-02-15T23:26:04.657Z,7.55
2023-02-15T23:28:36.210Z,7.51
2023-02-15T23:31:07.044Z,7.63
2023-02-15T23:33:38.739Z,7.61
2023-02-15T23:36:07.184Z,7.39
2023-02-15T23:38:35.037Z,7.56
2023-02-15T23:41:23.019Z,7.46
2023-02-15T23:43:55.049Z,7.52
2023-02-15T23:46:29.124Z,7.67
2023-02-15T23:48:58.578Z,7.68
2023-02-15T23:51:31.596Z,7.55
2023-02-15T23:53:59.478Z,7.60
2023-02-15T23:56:27.438Z,7.49
2023-02-15T23:58:55.447Z,7.59
